Time;durP1;ratioP1;P1;durP2;ratioP2;P2;SDS_P1;SDS_P2;PMS_P1;PMS_P2;Temp;Humidity;BMP_temperature;BMP_pressure;BME280_temperature;BME280_humidity;BME280_pressure;Samples;Min_cycle;Max_cycle;Signal;HPM_P1;HPM_P2
2022/08/04 00:00:10;;;;;;;;;;;29.10;37.80;;;;;;8369404;28;19923;-45
2022/08/04 00:04:29;;;;;;;;;;;29.00;37.70;;;;;;8369232;28;19913;-45
2022/08/04 00:08:43;;;;;;;;;;;29.00;37.80;;;;;;8368348;28;19924;-44
2022/08/04 00:12:47;;;;;;;;;;;29.00;37.80;;;;;;8369371;28;19955;-45
2022/08/04 00:16:48;;;;;;;;;;;29.00;37.80;;;;;;8368383;28;19921;-45
2022/08/04 00:20:50;;;;;;;;;;;29.00;37.90;;;;;;8368694;28;20696;-45
2022/08/04 00:24:51;;;;;;;;;;;29.00;38.00;;;;;;8368477;28;19952;-45
2022/08/04 00:28:51;;;;;;;;;;;29.00;37.80;;;;;;8367884;28;20297;-46
2022/08/04 00:32:52;;;;;;;;;;;29.00;37.90;;;;;;8368186;28;19952;-45
2022/08/04 00:36:53;;;;;;;;;;;28.90;37.80;;;;;;8368455;28;19948;-45
2022/08/04 00:41:07;;;;;;;;;;;28.90;37.80;;;;;;8367498;28;20425;-45
2022/08/04 00:45:22;;;;;;;;;;;28.90;37.80;;;;;;8367440;28;20366;-45
2022/08/04 00:49:34;;;;;;;;;;;28.90;37.90;;;;;;8367797;28;19921;-45
2022/08/04 00:53:43;;;;;;;;;;;28.90;37.90;;;;;;8367091;28;19955;-46
2022/08/04 00:57:54;;;;;;;;;;;28.90;37.90;;;;;;8367888;28;19956;-45
2022/08/04 01:01:55;;;;;;;;;;;28.90;37.90;;;;;;8366923;28;19924;-45
2022/08/04 01:06:07;;;;;;;;;;;28.90;37.90;;;;;;8366428;28;20358;-45
2022/08/04 01:10:12;;;;;;;;;;;28.90;37.90;;;;;;8367105;28;20435;-46
2022/08/04 01:14:19;;;;;;;;;;;28.90;38.00;;;;;;8366368;28;19921;-45
2022/08/04 01:18:39;;;;;;;;;;;28.80;37.90;;;;;;8367168;28;19913;-45
2022/08/04 01:22:43;;;;;;;;;;;28.90;38.00;;;;;;8366343;28;19917;-45
2022/08/04 01:27:02;;;;;;;;;;;28.80;37.90;;;;;;8366168;28;19944;-45
2022/08/04 01:31:10;;;;;;;;;;;28.80;37.90;;;;;;8366613;28;19934;-45
2022/08/04 01:35:12;;;;;;;;;;;28.80;37.90;;;;;;8366071;28;19924;-44
2022/08/04 01:43:34;;;;;;;;;;;28.80;37.90;;;;;;8369018;28;20297;-45
2022/08/04 01:47:36;;;;;;;;;;;28.80;37.90;;;;;;8365588;28;20298;-45
2022/08/04 01:51:38;;;;;;;;;;;28.80;38.00;;;;;;8365925;28;19943;-44
2022/08/04 01:55:39;;;;;;;;;;;28.70;37.90;;;;;;8365039;28;19917;-45
2022/08/04 01:59:43;;;;;;;;;;;28.70;37.90;;;;;;8364649;28;20023;-45
2022/08/04 02:03:44;;;;;;;;;;;28.70;37.90;;;;;;8365433;28;19913;-44
2022/08/04 02:07:48;;;;;;;;;;;28.70;38.00;;;;;;8365003;28;19959;-43
2022/08/04 02:11:56;;;;;;;;;;;28.70;38.00;;;;;;8365635;28;19967;-45
2022/08/04 02:16:02;;;;;;;;;;;28.70;38.00;;;;;;8364976;28;20007;-44
2022/08/04 02:20:02;;;;;;;;;;;28.70;38.00;;;;;;8364521;28;20352;-45
2022/08/04 02:24:07;;;;;;;;;;;28.70;38.00;;;;;;8364724;28;20032;-45
2022/08/04 02:28:12;;;;;;;;;;;28.70;38.00;;;;;;8364780;28;19936;-45
2022/08/04 02:32:18;;;;;;;;;;;28.70;38.00;;;;;;8363878;28;19923;-47
2022/08/04 02:36:39;;;;;;;;;;;28.70;38.00;;;;;;8364461;28;19991;-45
2022/08/04 02:40:40;;;;;;;;;;;28.60;37.90;;;;;;8363635;28;19920;-45
2022/08/04 02:44:42;;;;;;;;;;;28.60;38.00;;;;;;8363670;28;20046;-45
2022/08/04 02:48:44;;;;;;;;;;;28.60;38.00;;;;;;8364368;28;19920;-45
2022/08/04 02:52:46;;;;;;;;;;;28.60;38.00;;;;;;8363700;28;19924;-43
2022/08/04 02:56:49;;;;;;;;;;;28.60;38.00;;;;;;8363673;28;19921;-45
2022/08/04 03:00:50;;;;;;;;;;;28.60;38.00;;;;;;8363641;28;20392;-45
2022/08/04 03:04:56;;;;;;;;;;;28.60;38.10;;;;;;8363180;28;20051;-45
2022/08/04 03:09:03;;;;;;;;;;;28.60;38.10;;;;;;8363500;28;20369;-45
2022/08/04 03:13:09;;;;;;;;;;;28.60;38.60;;;;;;8363702;28;19921;-45
2022/08/04 03:17:28;;;;;;;;;;;28.50;38.00;;;;;;8362798;28;19921;-45
2022/08/04 03:21:29;;;;;;;;;;;28.60;38.10;;;;;;8363554;28;19923;-45
2022/08/04 03:25:48;;;;;;;;;;;28.50;38.00;;;;;;8363381;28;19917;-45
2022/08/04 03:29:54;;;;;;;;;;;28.50;38.10;;;;;;8362806;28;19925;-45
2022/08/04 03:34:09;;;;;;;;;;;28.50;38.10;;;;;;8363389;28;19954;-45
2022/08/04 03:38:09;;;;;;;;;;;28.50;38.10;;;;;;8362911;28;20362;-45
2022/08/04 03:42:23;;;;;;;;;;;28.50;38.10;;;;;;8362982;28;19916;-45
2022/08/04 03:46:50;;;;;;;;;;;28.50;38.10;;;;;;8363039;28;19921;-45
2022/08/04 03:55:19;;;;;;;;;;;28.40;38.10;;;;;;8363284;28;19963;-45
2022/08/04 03:59:26;;;;;;;;;;;28.40;38.00;;;;;;8362353;28;19995;-45
2022/08/04 04:03:26;;;;;;;;;;;28.40;38.10;;;;;;8361482;28;19920;-45
2022/08/04 04:07:27;;;;;;;;;;;28.40;38.10;;;;;;8362629;28;19921;-45
2022/08/04 04:11:27;;;;;;;;;;;28.40;38.10;;;;;;8362022;28;19917;-45
2022/08/04 04:15:31;;;;;;;;;;;28.40;38.10;;;;;;8362802;28;19921;-45
2022/08/04 04:19:52;;;;;;;;;;;28.40;38.10;;;;;;8363097;28;19992;-45
2022/08/04 04:24:13;;;;;;;;;;;28.40;38.20;;;;;;8368647;28;19913;-45
2022/08/04 04:28:26;;;;;;;;;;;28.40;38.20;;;;;;8368308;28;19929;-44
2022/08/04 04:32:34;;;;;;;;;;;28.40;38.20;;;;;;8367969;28;19983;-45
2022/08/04 04:36:52;;;;;;;;;;;28.30;38.10;;;;;;8368201;28;19917;-45
2022/08/04 04:41:04;;;;;;;;;;;28.30;38.10;;;;;;8367567;28;19916;-44
2022/08/04 04:45:05;;;;;;;;;;;28.30;38.10;;;;;;8367996;28;19917;-45
2022/08/04 04:49:11;;;;;;;;;;;28.30;38.10;;;;;;8368146;28;20308;-44
2022/08/04 04:53:19;;;;;;;;;;;28.30;38.20;;;;;;8367226;28;19933;-44
2022/08/04 04:57:21;;;;;;;;;;;28.30;38.20;;;;;;8367514;28;19923;-44
2022/08/04 05:01:21;;;;;;;;;;;28.30;38.20;;;;;;8367677;28;20400;-43
2022/08/04 05:05:40;;;;;;;;;;;28.30;38.20;;;;;;8366936;28;19916;-45
2022/08/04 05:09:43;;;;;;;;;;;28.30;38.20;;;;;;8367059;28;19927;-44
2022/08/04 05:13:45;;;;;;;;;;;28.30;38.20;;;;;;8366883;28;20270;-42
2022/08/04 05:17:49;;;;;;;;;;;28.30;38.20;;;;;;8367333;28;19917;-45
2022/08/04 05:22:13;;;;;;;;;;;28.30;38.80;;;;;;8366714;28;20051;-45
2022/08/04 05:26:15;;;;;;;;;;;28.30;38.20;;;;;;8357794;28;20320;-45
2022/08/04 05:30:17;;;;;;;;;;;28.30;38.20;;;;;;8366374;28;19932;-45
2022/08/04 05:34:22;;;;;;;;;;;28.20;38.20;;;;;;8366567;28;19913;-45
2022/08/04 05:38:26;;;;;;;;;;;28.20;38.10;;;;;;8365764;28;20089;-44
2022/08/04 05:42:27;;;;;;;;;;;28.20;38.10;;;;;;8365983;28;19995;-44
2022/08/04 05:46:28;;;;;;;;;;;28.20;38.10;;;;;;8366049;28;19940;-45
2022/08/04 05:50:29;;;;;;;;;;;28.20;38.10;;;;;;8365312;28;20294;-45
2022/08/04 05:54:30;;;;;;;;;;;28.20;38.10;;;;;;8366135;28;19995;-47
2022/08/04 05:58:31;;;;;;;;;;;28.20;38.70;;;;;;8365339;28;19974;-45
2022/08/04 06:02:33;;;;;;;;;;;28.20;38.20;;;;;;8365173;28;19953;-45
2022/08/04 06:06:33;;;;;;;;;;;28.20;38.10;;;;;;8365596;28;20397;-44
2022/08/04 06:10:36;;;;;;;;;;;28.20;38.10;;;;;;8365131;28;19932;-44
2022/08/04 06:14:41;;;;;;;;;;;28.20;38.10;;;;;;8364779;28;19952;-45
2022/08/04 06:18:44;;;;;;;;;;;28.20;38.10;;;;;;8364368;28;21289;-44
2022/08/04 06:22:45;;;;;;;;;;;28.20;38.10;;;;;;8364386;28;20285;-43
2022/08/04 06:26:48;;;;;;;;;;;28.20;38.10;;;;;;8364572;28;19940;-44
2022/08/04 06:30:50;;;;;;;;;;;28.20;38.10;;;;;;8364399;28;19928;-46
2022/08/04 06:34:54;;;;;;;;;;;28.20;38.10;;;;;;8364332;28;19920;-44
2022/08/04 06:38:55;;;;;;;;;;;28.20;38.10;;;;;;8364566;28;19992;-45
2022/08/04 06:42:56;;;;;;;;;;;28.20;38.10;;;;;;8363835;28;19971;-44
2022/08/04 06:46:57;;;;;;;;;;;28.20;38.10;;;;;;8363758;28;19913;-44
2022/08/04 06:50:58;;;;;;;;;;;28.20;38.10;;;;;;8363895;28;20019;-44
2022/08/04 06:54:59;;;;;;;;;;;28.20;38.00;;;;;;8364280;28;19923;-44
2022/08/04 06:59:02;;;;;;;;;;;28.20;38.60;;;;;;8363400;28;19956;-43
2022/08/04 07:03:04;;;;;;;;;;;28.20;38.00;;;;;;8364030;28;20376;-44
2022/08/04 07:07:05;;;;;;;;;;;28.20;38.00;;;;;;8362370;28;19923;-45
2022/08/04 07:11:05;;;;;;;;;;;28.30;38.00;;;;;;8363207;28;19921;-45
2022/08/04 07:15:07;;;;;;;;;;;28.20;38.00;;;;;;8363974;28;19921;-44
2022/08/04 07:19:07;;;;;;;;;;;28.30;38.00;;;;;;8363332;28;19916;-45
2022/08/04 07:23:09;;;;;;;;;;;28.30;38.10;;;;;;8362807;28;19917;-44
2022/08/04 07:27:09;;;;;;;;;;;28.30;37.90;;;;;;8363513;28;19986;-45
2022/08/04 07:31:12;;;;;;;;;;;28.30;37.90;;;;;;8362964;28;20000;-45
2022/08/04 07:35:13;;;;;;;;;;;28.30;37.90;;;;;;8362890;28;19913;-46
2022/08/04 07:39:13;;;;;;;;;;;28.30;38.00;;;;;;8363211;28;19925;-45
2022/08/04 07:43:15;;;;;;;;;;;28.30;38.00;;;;;;8363034;28;20328;-44
2022/08/04 07:47:15;;;;;;;;;;;28.20;38.00;;;;;;8362378;28;19921;-44
2022/08/04 07:51:16;;;;;;;;;;;28.20;38.00;;;;;;8362794;28;19994;-44
2022/08/04 07:55:17;;;;;;;;;;;28.30;38.10;;;;;;8365053;28;19916;-44
2022/08/04 07:59:18;;;;;;;;;;;28.30;38.10;;;;;;8368880;28;19924;-44
2022/08/04 08:03:19;;;;;;;;;;;28.30;38.10;;;;;;8369159;28;19974;-45
2022/08/04 08:07:19;;;;;;;;;;;28.30;38.10;;;;;;8369093;28;20003;-44
2022/08/04 08:11:20;;;;;;;;;;;28.30;38.10;;;;;;8368413;28;19940;-44
2022/08/04 08:15:21;;;;;;;;;;;28.30;38.10;;;;;;8369104;28;19920;-44
2022/08/04 08:19:21;;;;;;;;;;;28.30;38.10;;;;;;8368764;28;19921;-44
2022/08/04 08:23:21;;;;;;;;;;;28.30;38.10;;;;;;8367980;28;19924;-44
2022/08/04 08:27:22;;;;;;;;;;;28.30;38.10;;;;;;8368458;28;19917;-44
2022/08/04 08:31:23;;;;;;;;;;;28.40;38.20;;;;;;8368528;28;19920;-45
2022/08/04 08:35:24;;;;;;;;;;;28.40;38.70;;;;;;8368096;28;20313;-45
2022/08/04 08:39:32;;;;;;;;;;;28.40;38.20;;;;;;8368409;28;20389;-44
2022/08/04 08:43:53;;;;;;;;;;;28.40;38.20;;;;;;8368084;28;19917;-43
2022/08/04 08:48:12;;;;;;;;;;;28.40;38.20;;;;;;8336239;28;19956;-44
2022/08/04 08:52:38;;;;;;;;;;;28.40;38.20;;;;;;8367693;28;19971;-44
2022/08/04 08:56:39;;;;;;;;;;;28.40;38.20;;;;;;8367132;28;19920;-44
2022/08/04 09:00:58;;;;;;;;;;;28.40;38.20;;;;;;8367796;28;19923;-45
2022/08/04 09:05:04;;;;;;;;;;;28.40;38.20;;;;;;8366450;28;19971;-45
2022/08/04 09:09:05;;;;;;;;;;;28.50;38.30;;;;;;8367285;28;19940;-44
2022/08/04 09:13:12;;;;;;;;;;;28.50;38.30;;;;;;8366956;28;19917;-44
2022/08/04 09:17:19;;;;;;;;;;;28.50;38.30;;;;;;8366490;28;20431;-44
2022/08/04 09:21:32;;;;;;;;;;;28.50;38.30;;;;;;8367277;28;20473;-45
2022/08/04 09:25:37;;;;;;;;;;;28.50;38.20;;;;;;8366922;28;20286;-44
2022/08/04 09:30:00;;;;;;;;;;;28.50;38.20;;;;;;8366062;28;20022;-46
2022/08/04 09:34:07;;;;;;;;;;;28.60;38.30;;;;;;8357995;28;19948;-45
2022/08/04 09:38:26;;;;;;;;;;;28.60;38.30;;;;;;8365781;28;19916;-46
2022/08/04 09:42:48;;;;;;;;;;;28.60;38.20;;;;;;8366128;28;19917;-45
2022/08/04 09:46:56;;;;;;;;;;;28.70;38.20;;;;;;8365606;28;19913;-44
2022/08/04 09:50:58;;;;;;;;;;;28.60;38.20;;;;;;8366069;28;20370;-47
2022/08/04 09:55:21;;;;;;;;;;;28.70;38.20;;;;;;8365744;28;19924;-45
2022/08/04 09:59:48;;;;;;;;;;;28.70;38.20;;;;;;8356837;28;19948;-44
2022/08/04 10:03:55;;;;;;;;;;;28.70;38.20;;;;;;8341864;28;19917;-44
2022/08/04 10:08:10;;;;;;;;;;;28.80;38.30;;;;;;8363229;28;20341;-45
2022/08/04 10:12:29;;;;;;;;;;;28.80;38.20;;;;;;8365153;28;19916;-45
2022/08/04 10:16:34;;;;;;;;;;;28.80;38.20;;;;;;8365007;28;19921;-44
2022/08/04 10:20:45;;;;;;;;;;;28.80;38.20;;;;;;8363943;28;19921;-45
2022/08/04 10:24:57;;;;;;;;;;;28.80;38.20;;;;;;8364876;28;19917;-44
2022/08/04 10:29:03;;;;;;;;;;;28.80;38.20;;;;;;8364081;28;19921;-44
2022/08/04 10:33:10;;;;;;;;;;;28.90;38.10;;;;;;8364591;28;19916;-45
2022/08/04 10:37:37;;;;;;;;;;;28.90;38.10;;;;;;8364538;28;19925;-44
2022/08/04 10:41:56;;;;;;;;;;;28.90;38.10;;;;;;8336404;28;19923;-44
2022/08/04 10:45:58;;;;;;;;;;;29.00;38.10;;;;;;8364507;28;19921;-43
2022/08/04 10:50:00;;;;;;;;;;;29.00;38.10;;;;;;8363563;28;19927;-45
2022/08/04 10:54:12;;;;;;;;;;;29.00;38.10;;;;;;8364491;28;20239;-44
2022/08/04 10:58:15;;;;;;;;;;;29.00;38.10;;;;;;8363899;28;20395;-44
2022/08/04 11:02:24;;;;;;;;;;;29.10;38.10;;;;;;8363217;28;19921;-45
2022/08/04 11:06:25;;;;;;;;;;;29.10;38.10;;;;;;8363818;28;19921;-44
2022/08/04 11:10:28;;;;;;;;;;;29.10;38.00;;;;;;8363633;28;20027;-44
2022/08/04 11:14:36;;;;;;;;;;;29.10;38.00;;;;;;8362815;28;20427;-44
2022/08/04 11:18:48;;;;;;;;;;;29.10;38.00;;;;;;8363508;28;19927;-44
2022/08/04 11:23:09;;;;;;;;;;;29.20;38.00;;;;;;8362811;28;19956;-44
2022/08/04 11:27:22;;;;;;;;;;;29.20;38.00;;;;;;8362807;28;19920;-43
2022/08/04 11:31:25;;;;;;;;;;;29.30;38.00;;;;;;8363035;28;19978;-44
2022/08/04 11:35:43;;;;;;;;;;;29.30;38.00;;;;;;8362754;28;20007;-44
2022/08/04 11:39:47;;;;;;;;;;;29.30;38.00;;;;;;8363110;28;19917;-44
2022/08/04 11:43:54;;;;;;;;;;;29.30;37.90;;;;;;8362394;28;19916;-45
2022/08/04 11:48:00;;;;;;;;;;;29.30;38.00;;;;;;8367436;28;19971;-44
2022/08/04 11:52:02;;;;;;;;;;;29.30;37.90;;;;;;8362985;28;19959;-44
2022/08/04 11:56:04;;;;;;;;;;;29.40;37.90;;;;;;8362331;28;19917;-44
2022/08/04 12:00:08;;;;;;;;;;;29.40;38.40;;;;;;8362629;28;19952;-44
2022/08/04 12:04:09;;;;;;;;;;;29.40;37.80;;;;;;8362587;28;19944;-44
2022/08/04 12:08:16;;;;;;;;;;;29.40;37.80;;;;;;8361982;28;19928;-43
2022/08/04 12:12:16;;;;;;;;;;;29.50;37.70;;;;;;8362668;28;19913;-43
2022/08/04 12:16:17;;;;;;;;;;;29.50;37.40;;;;;;8362347;28;19921;-44
2022/08/04 12:20:21;;;;;;;;;;;29.50;38.20;;;;;;8362025;28;19948;-44
2022/08/04 12:24:24;;;;;;;;;;;29.50;37.60;;;;;;8362534;28;20428;-45
2022/08/04 12:28:30;;;;;;;;;;;29.60;37.60;;;;;;8361970;28;19925;-44
2022/08/04 12:32:42;;;;;;;;;;;29.60;37.40;;;;;;8361731;28;19924;-46
2022/08/04 12:37:00;;;;;;;;;;;29.60;37.50;;;;;;8362266;28;19916;-44
2022/08/04 12:41:04;;;;;;;;;;;29.60;37.20;;;;;;8362974;28;19923;-45
2022/08/04 12:45:09;;;;;;;;;;;29.70;37.40;;;;;;8368169;28;20008;-43
2022/08/04 12:49:10;;;;;;;;;;;29.70;37.40;;;;;;8367670;28;19952;-44
2022/08/04 12:53:12;;;;;;;;;;;29.70;37.30;;;;;;8367229;28;19923;-45
2022/08/04 12:57:13;;;;;;;;;;;29.70;37.20;;;;;;8367657;28;19951;-45
2022/08/04 13:01:17;;;;;;;;;;;29.70;37.10;;;;;;8367350;28;19917;-44
2022/08/04 13:05:18;;;;;;;;;;;29.70;37.00;;;;;;8367024;28;19917;-45
2022/08/04 13:09:21;;;;;;;;;;;29.80;37.00;;;;;;8366301;28;19920;-44
2022/08/04 13:13:24;;;;;;;;;;;29.80;37.10;;;;;;8366902;28;19917;-45
2022/08/04 13:17:24;;;;;;;;;;;29.80;37.00;;;;;;8366591;28;20377;-45
2022/08/04 13:21:28;;;;;;;;;;;29.80;36.80;;;;;;8366859;28;19975;-45
2022/08/04 13:25:29;;;;;;;;;;;29.90;36.90;;;;;;8366588;28;19916;-48
2022/08/04 13:29:34;;;;;;;;;;;29.90;37.00;;;;;;8365868;28;20431;-44
2022/08/04 13:33:35;;;;;;;;;;;29.90;36.90;;;;;;8366282;28;19976;-44
2022/08/04 13:37:38;;;;;;;;;;;29.90;37.00;;;;;;8366565;28;19948;-45
2022/08/04 13:41:42;;;;;;;;;;;29.90;37.00;;;;;;8365622;28;20358;-44
2022/08/04 13:45:43;;;;;;;;;;;30.00;37.10;;;;;;8366045;28;19917;-46
2022/08/04 13:50:03;;;;;;;;;;;30.00;37.00;;;;;;8365869;28;19971;-45
2022/08/04 13:54:04;;;;;;;;;;;30.00;37.00;;;;;;8365316;28;19920;-44
2022/08/04 13:58:09;;;;;;;;;;;30.00;37.00;;;;;;8365788;28;19916;-45
2022/08/04 14:02:23;;;;;;;;;;;30.00;37.10;;;;;;8364963;28;19916;-45
2022/08/04 14:06:30;;;;;;;;;;;30.00;37.20;;;;;;8365378;28;19923;-46
2022/08/04 14:10:32;;;;;;;;;;;30.00;37.00;;;;;;8365171;28;19924;-45
2022/08/04 14:14:33;;;;;;;;;;;30.00;37.20;;;;;;8364456;28;19927;-45
2022/08/04 14:18:33;;;;;;;;;;;30.10;37.30;;;;;;8365190;28;19913;-45
2022/08/04 14:22:35;;;;;;;;;;;30.10;37.20;;;;;;8364987;28;20500;-44
2022/08/04 14:26:36;;;;;;;;;;;30.10;37.20;;;;;;8363658;28;20018;-45
2022/08/04 14:30:36;;;;;;;;;;;30.10;37.30;;;;;;8364828;28;19925;-46
2022/08/04 14:34:38;;;;;;;;;;;30.10;37.20;;;;;;8364577;28;19975;-45
2022/08/04 14:38:46;;;;;;;;;;;30.10;37.30;;;;;;8363653;28;19921;-45
2022/08/04 14:42:47;;;;;;;;;;;30.10;37.30;;;;;;8364572;28;20275;-46
2022/08/04 14:46:49;;;;;;;;;;;30.20;37.30;;;;;;8363709;28;19917;-45
2022/08/04 14:50:49;;;;;;;;;;;30.10;36.80;;;;;;8363937;28;19925;-44
2022/08/04 14:54:50;;;;;;;;;;;30.10;37.00;;;;;;8363970;28;20028;-44
2022/08/04 14:58:57;;;;;;;;;;;30.10;37.00;;;;;;8363280;28;20358;-45
2022/08/04 15:03:08;;;;;;;;;;;30.20;37.10;;;;;;8363660;28;20452;-45
2022/08/04 15:07:09;;;;;;;;;;;30.20;36.80;;;;;;8363671;28;19916;-45
2022/08/04 15:11:09;;;;;;;;;;;30.20;37.00;;;;;;8363013;28;19925;-44
2022/08/04 15:15:10;;;;;;;;;;;30.20;37.10;;;;;;8363673;28;19975;-44
2022/08/04 15:19:11;;;;;;;;;;;30.20;37.10;;;;;;8363148;28;19913;-45
2022/08/04 15:23:11;;;;;;;;;;;30.20;37.10;;;;;;8363294;28;20388;-45
2022/08/04 15:27:12;;;;;;;;;;;30.20;37.10;;;;;;8363159;28;19917;-45
2022/08/04 15:31:14;;;;;;;;;;;30.20;37.00;;;;;;8363096;28;19920;-45
2022/08/04 15:35:19;;;;;;;;;;;30.20;37.00;;;;;;8362625;28;20370;-44
2022/08/04 15:39:22;;;;;;;;;;;30.20;37.10;;;;;;8363030;28;20289;-44
2022/08/04 15:43:41;;;;;;;;;;;30.20;37.20;;;;;;8362906;28;19917;-43
2022/08/04 15:47:42;;;;;;;;;;;30.20;37.20;;;;;;8362187;28;20333;-44
2022/08/04 15:51:42;;;;;;;;;;;30.20;37.20;;;;;;8362591;28;19916;-45
2022/08/04 15:55:43;;;;;;;;;;;30.20;37.00;;;;;;8362531;28;19913;-46
2022/08/04 16:00:00;;;;;;;;;;;30.20;37.00;;;;;;8362432;28;20427;-46
2022/08/04 16:04:18;;;;;;;;;;;30.20;37.00;;;;;;8360384;28;19912;-45
2022/08/04 16:08:19;;;;;;;;;;;30.20;36.60;;;;;;8329377;28;20027;-44
2022/08/04 16:12:42;;;;;;;;;;;30.30;36.60;;;;;;8356724;28;19983;-44
2022/08/04 16:16:46;;;;;;;;;;;30.30;37.00;;;;;;8336582;28;19927;-45
2022/08/04 16:20:47;;;;;;;;;;;30.30;37.20;;;;;;8368475;28;19917;-44
2022/08/04 16:24:50;;;;;;;;;;;30.30;36.50;;;;;;8368954;28;20305;-44
2022/08/04 16:28:51;;;;;;;;;;;30.30;36.40;;;;;;8368286;28;19921;-44
2022/08/04 16:32:53;;;;;;;;;;;30.30;37.40;;;;;;8368309;28;19921;-45
2022/08/04 16:36:54;;;;;;;;;;;30.30;37.20;;;;;;8368588;28;19921;-46
2022/08/04 16:40:55;;;;;;;;;;;30.30;37.00;;;;;;8367748;28;19921;-44
2022/08/04 16:45:05;;;;;;;;;;;30.30;37.00;;;;;;8368634;28;19917;-44
2022/08/04 16:49:06;;;;;;;;;;;30.40;37.20;;;;;;8368169;28;19928;-44
2022/08/04 16:53:09;;;;;;;;;;;30.40;37.00;;;;;;8367355;28;19998;-45
2022/08/04 16:57:10;;;;;;;;;;;30.40;37.00;;;;;;8367720;28;19916;-46
2022/08/04 17:01:11;;;;;;;;;;;30.30;37.00;;;;;;8367922;28;20429;-45
2022/08/04 17:05:22;;;;;;;;;;;30.40;36.90;;;;;;8367326;28;19971;-46
2022/08/04 17:09:22;;;;;;;;;;;30.40;36.90;;;;;;8367610;28;19928;-45
2022/08/04 17:13:27;;;;;;;;;;;30.40;36.70;;;;;;8367132;28;20020;-45
2022/08/04 17:17:28;;;;;;;;;;;30.40;36.90;;;;;;8366844;28;19923;-45
2022/08/04 17:21:29;;;;;;;;;;;30.40;37.10;;;;;;8366786;28;19999;-45
2022/08/04 17:25:30;;;;;;;;;;;30.40;37.00;;;;;;8366897;28;19917;-44
2022/08/04 17:29:33;;;;;;;;;;;30.40;37.10;;;;;;8365863;28;19928;-45
2022/08/04 17:33:33;;;;;;;;;;;30.40;37.10;;;;;;8366634;28;19945;-45
2022/08/04 17:37:34;;;;;;;;;;;30.40;37.10;;;;;;8366153;28;19924;-46
2022/08/04 17:41:34;;;;;;;;;;;30.40;37.10;;;;;;8366160;28;19916;-45
2022/08/04 17:45:35;;;;;;;;;;;30.40;37.10;;;;;;8366273;28;19983;-44
2022/08/04 17:49:35;;;;;;;;;;;30.40;37.10;;;;;;8366514;28;19928;-45
2022/08/04 17:53:37;;;;;;;;;;;30.40;37.10;;;;;;8365352;28;19924;-45
2022/08/04 17:57:37;;;;;;;;;;;30.40;37.70;;;;;;8366152;28;19917;-45
2022/08/04 18:01:39;;;;;;;;;;;30.40;37.10;;;;;;8365997;28;19921;-45
2022/08/04 18:05:39;;;;;;;;;;;30.40;37.20;;;;;;8365549;28;19925;-44
2022/08/04 18:09:41;;;;;;;;;;;30.40;37.10;;;;;;8365595;28;20006;-49
2022/08/04 18:13:41;;;;;;;;;;;30.40;37.20;;;;;;8373821;28;19967;-45
2022/08/04 18:17:45;;;;;;;;;;;30.40;37.20;;;;;;8374981;28;19917;-46
2022/08/04 18:21:46;;;;;;;;;;;30.40;36.80;;;;;;8365299;28;19920;-44
2022/08/04 18:25:46;;;;;;;;;;;30.40;36.70;;;;;;8364658;28;19924;-45
2022/08/04 18:29:47;;;;;;;;;;;30.40;36.50;;;;;;8365046;28;19921;-44
2022/08/04 18:33:48;;;;;;;;;;;30.40;36.10;;;;;;8364523;28;19952;-44
2022/08/04 18:37:51;;;;;;;;;;;30.40;36.50;;;;;;8363359;28;19947;-44
2022/08/04 18:41:52;;;;;;;;;;;30.40;36.00;;;;;;8364173;28;19917;-44
2022/08/04 18:45:52;;;;;;;;;;;30.40;35.90;;;;;;8364262;28;19924;-44
2022/08/04 18:49:53;;;;;;;;;;;30.30;35.60;;;;;;8363899;28;19921;-46
2022/08/04 18:53:54;;;;;;;;;;;30.30;35.40;;;;;;8363878;28;19916;-44
2022/08/04 18:57:54;;;;;;;;;;;30.30;35.70;;;;;;8364041;28;19921;-44
2022/08/04 19:01:55;;;;;;;;;;;30.30;36.30;;;;;;8363227;28;19921;-45
2022/08/04 19:05:55;;;;;;;;;;;30.40;36.50;;;;;;8363791;28;19968;-44
2022/08/04 19:09:56;;;;;;;;;;;30.40;36.60;;;;;;8345393;28;20484;-44
2022/08/04 19:13:56;;;;;;;;;;;30.40;36.60;;;;;;8363216;28;19963;-44
2022/08/04 19:17:56;;;;;;;;;;;30.30;36.40;;;;;;8363346;28;19917;-45
2022/08/04 19:21:57;;;;;;;;;;;30.30;36.10;;;;;;8363242;28;19924;-45
2022/08/04 19:25:58;;;;;;;;;;;30.30;35.80;;;;;;8362877;28;19917;-45
2022/08/04 19:29:58;;;;;;;;;;;30.30;35.50;;;;;;8363973;28;19925;-46
2022/08/04 19:33:59;;;;;;;;;;;30.30;35.40;;;;;;8363056;28;20449;-45
2022/08/04 19:38:00;;;;;;;;;;;30.30;35.60;;;;;;8362723;28;19924;-46
2022/08/04 19:42:00;;;;;;;;;;;30.20;35.50;;;;;;8363125;28;19917;-45
2022/08/04 19:46:01;;;;;;;;;;;30.30;35.50;;;;;;8362997;28;19916;-45
2022/08/04 19:50:02;;;;;;;;;;;30.30;35.70;;;;;;8364302;28;20386;-45
2022/08/04 19:54:03;;;;;;;;;;;30.20;35.70;;;;;;8369995;28;19916;-45
2022/08/04 19:58:05;;;;;;;;;;;30.30;36.00;;;;;;8369687;28;19955;-45
2022/08/04 20:02:05;;;;;;;;;;;30.20;36.00;;;;;;8369109;28;20004;-45
2022/08/04 20:06:06;;;;;;;;;;;30.20;36.20;;;;;;8369579;28;19920;-46
2022/08/04 20:10:07;;;;;;;;;;;30.20;36.10;;;;;;8369453;28;19970;-45
2022/08/04 20:14:07;;;;;;;;;;;30.20;36.30;;;;;;8368975;28;20313;-45
2022/08/04 20:18:08;;;;;;;;;;;30.20;36.40;;;;;;8368945;28;19916;-45
2022/08/04 20:22:08;;;;;;;;;;;30.20;36.50;;;;;;8368881;28;19951;-43
2022/08/04 20:26:09;;;;;;;;;;;30.20;36.60;;;;;;8368250;28;19917;-44
2022/08/04 20:30:09;;;;;;;;;;;30.20;36.60;;;;;;8368648;28;19921;-45
2022/08/04 20:34:10;;;;;;;;;;;30.20;36.70;;;;;;8368393;28;20354;-43
2022/08/04 20:38:10;;;;;;;;;;;30.20;36.70;;;;;;8367865;28;19924;-43
2022/08/04 20:42:11;;;;;;;;;;;30.20;36.80;;;;;;8378875;28;19912;-44
2022/08/04 20:46:12;;;;;;;;;;;30.20;36.80;;;;;;8401593;28;19917;-43
2022/08/04 20:50:13;;;;;;;;;;;30.20;36.90;;;;;;8400809;28;20293;-42
2022/08/04 20:54:13;;;;;;;;;;;30.10;36.70;;;;;;8400853;28;19923;-44
2022/08/04 20:58:13;;;;;;;;;;;30.10;36.80;;;;;;8400753;28;19913;-45
2022/08/04 21:02:14;;;;;;;;;;;30.20;36.90;;;;;;8399436;28;20339;-44
2022/08/04 21:06:14;;;;;;;;;;;30.10;36.80;;;;;;8400959;28;20385;-45
2022/08/04 21:10:15;;;;;;;;;;;30.20;36.90;;;;;;8400593;28;19928;-45
2022/08/04 21:14:16;;;;;;;;;;;30.10;36.80;;;;;;8399654;28;19920;-45
2022/08/04 21:18:16;;;;;;;;;;;30.10;36.90;;;;;;8400485;28;19923;-44
2022/08/04 21:22:18;;;;;;;;;;;30.10;36.90;;;;;;8400112;28;20377;-44
2022/08/04 21:26:22;;;;;;;;;;;30.10;36.90;;;;;;8399587;28;19924;-44
2022/08/04 21:30:22;;;;;;;;;;;30.10;36.90;;;;;;8400347;28;19924;-44
2022/08/04 21:34:23;;;;;;;;;;;30.10;37.00;;;;;;8399828;28;19916;-45
2022/08/04 21:38:23;;;;;;;;;;;30.10;37.00;;;;;;8399179;28;20010;-45
2022/08/04 21:42:24;;;;;;;;;;;30.10;37.00;;;;;;8399417;28;19912;-44
2022/08/04 21:46:24;;;;;;;;;;;30.10;37.00;;;;;;8399347;28;19916;-44
2022/08/04 21:50:25;;;;;;;;;;;30.10;37.00;;;;;;8399049;28;20290;-44
2022/08/04 21:54:25;;;;;;;;;;;30.10;37.00;;;;;;8399038;28;19921;-44
2022/08/04 21:58:26;;;;;;;;;;;30.10;37.00;;;;;;8399000;28;19977;-44
2022/08/04 22:02:26;;;;;;;;;;;30.10;37.00;;;;;;8372407;28;19971;-46
2022/08/04 22:06:27;;;;;;;;;;;30.10;37.00;;;;;;8332793;28;19967;-45
2022/08/04 22:10:27;;;;;;;;;;;30.10;37.00;;;;;;8365695;28;20003;-44
2022/08/04 22:14:27;;;;;;;;;;;30.00;37.00;;;;;;8364865;28;19927;-44
2022/08/04 22:18:28;;;;;;;;;;;30.00;37.00;;;;;;8365426;28;20015;-45
2022/08/04 22:22:32;;;;;;;;;;;30.00;37.00;;;;;;8365055;28;19913;-44
2022/08/04 22:26:32;;;;;;;;;;;30.00;37.00;;;;;;8364617;28;19923;-44
2022/08/04 22:30:34;;;;;;;;;;;30.00;37.00;;;;;;8364673;28;20305;-45
2022/08/04 22:34:38;;;;;;;;;;;30.00;37.00;;;;;;8364711;28;19924;-45
2022/08/04 22:38:38;;;;;;;;;;;30.00;37.00;;;;;;8364001;28;19943;-45
2022/08/04 22:42:39;;;;;;;;;;;30.00;37.00;;;;;;8364475;28;19913;-45
2022/08/04 22:46:40;;;;;;;;;;;30.00;37.00;;;;;;8364483;28;20369;-45
2022/08/04 22:50:40;;;;;;;;;;;30.00;37.00;;;;;;8396318;28;19946;-44
2022/08/04 22:54:40;;;;;;;;;;;30.00;37.00;;;;;;8397228;28;20396;-44
2022/08/04 22:58:42;;;;;;;;;;;30.00;37.00;;;;;;8397090;28;20000;-45
2022/08/04 23:02:43;;;;;;;;;;;30.00;37.00;;;;;;8396431;28;19916;-44
2022/08/04 23:06:43;;;;;;;;;;;30.00;37.00;;;;;;8397065;28;19912;-44
2022/08/04 23:10:44;;;;;;;;;;;30.00;37.00;;;;;;8396758;28;19935;-45
2022/08/04 23:14:45;;;;;;;;;;;29.90;37.00;;;;;;8396603;28;19925;-45
2022/08/04 23:18:46;;;;;;;;;;;29.90;37.00;;;;;;8396614;28;19920;-44
2022/08/04 23:22:46;;;;;;;;;;;29.90;37.00;;;;;;8396127;28;19916;-45
2022/08/04 23:26:46;;;;;;;;;;;29.90;37.60;;;;;;8396176;28;19951;-45
2022/08/04 23:30:47;;;;;;;;;;;29.90;37.00;;;;;;8396466;28;19959;-44
2022/08/04 23:34:47;;;;;;;;;;;29.90;37.00;;;;;;8396033;28;19913;-44
2022/08/04 23:38:48;;;;;;;;;;;29.80;37.00;;;;;;8396125;28;20395;-44
2022/08/04 23:42:48;;;;;;;;;;;29.90;37.10;;;;;;8396228;28;19913;-44
2022/08/04 23:46:49;;;;;;;;;;;29.80;37.00;;;;;;8395948;28;20388;-44